Time;durP1;ratioP1;P1;durP2;ratioP2;P2;SDS_P1;SDS_P2;PMS_P1;PMS_P2;Temp;Humidity;BMP_temperature;BMP_pressure;BME280_temperature;BME280_humidity;BME280_pressure;Samples;Min_cycle;Max_cycle;Signal;HPM_P1;HPM_P2
2022/04/25 00:01:44;;;;;;;19.33;16.45;;;30.10;97.00;;;;;;4180410;28;20050;-76
2022/04/25 00:03:51;;;;;;;22.10;16.20;;;30.20;97.00;;;;;;4197458;28;21435;-74
2022/04/25 00:05:56;;;;;;;25.70;16.48;;;30.20;97.00;;;;;;4197180;28;20373;-76
2022/04/25 00:08:03;;;;;;;22.25;16.38;;;30.20;97.00;;;;;;4197092;28;20059;-76
2022/04/25 00:10:10;;;;;;;23.08;17.25;;;30.30;97.00;;;;;;4193720;28;20048;-75
2022/04/25 00:12:15;;;;;;;23.70;18.05;;;30.30;97.10;;;;;;4195732;28;20135;-75
2022/04/25 00:14:21;;;;;;;23.25;18.00;;;30.40;97.00;;;;;;4184687;28;20068;-73
2022/04/25 00:16:28;;;;;;;26.42;18.02;;;30.40;97.00;;;;;;4181043;28;20084;-74
2022/04/25 00:18:33;;;;;;;22.75;17.40;;;30.50;96.90;;;;;;4182229;28;20041;-75
2022/04/25 00:20:40;;;;;;;20.38;17.45;;;30.50;96.70;;;;;;4185245;28;20075;-75
2022/04/25 00:22:46;;;;;;;24.77;15.98;;;30.50;96.60;;;;;;4175444;28;20052;-75
2022/04/25 00:24:51;;;;;;;19.17;15.20;;;30.60;96.30;;;;;;4181357;28;20087;-74
2022/04/25 00:26:59;;;;;;;20.52;15.00;;;30.60;95.80;;;;;;4162711;28;20062;-74
2022/04/25 00:29:05;;;;;;;23.15;16.08;;;30.60;95.90;;;;;;4150542;28;20145;-75
2022/04/25 00:31:13;;;;;;;18.98;15.27;;;30.70;95.70;;;;;;4173043;28;20076;-74
2022/04/25 00:33:22;;;;;;;20.15;14.98;;;30.70;95.70;;;;;;4174598;28;20037;-76
2022/04/25 00:35:33;;;;;;;18.10;14.45;;;30.70;95.60;;;;;;4158567;28;20053;-74
2022/04/25 00:37:39;;;;;;;19.50;14.40;;;30.80;95.50;;;;;;4185346;28;20135;-75
2022/04/25 00:39:45;;;;;;;20.10;15.30;;;30.80;95.50;;;;;;4183938;28;20071;-75
2022/04/25 00:41:50;;;;;;;18.98;15.23;;;30.90;95.30;;;;;;4183961;28;20052;-75
2022/04/25 00:43:58;;;;;;;21.95;16.00;;;30.90;95.20;;;;;;4177749;28;20134;-75
2022/04/25 00:46:04;;;;;;;23.15;15.68;;;31.00;95.10;;;;;;4184042;28;20048;-74
2022/04/25 00:48:11;;;;;;;17.77;14.00;;;31.00;95.10;;;;;;4168928;28;20053;-74
2022/04/25 00:50:16;;;;;;;18.05;15.65;;;31.10;94.90;;;;;;4181217;28;20044;-73
2022/04/25 00:52:23;;;;;;;21.50;16.35;;;31.10;94.90;;;;;;4171040;28;20059;-73
2022/04/25 00:54:31;;;;;;;21.42;16.25;;;31.10;94.80;;;;;;4168818;28;20749;-74
2022/04/25 00:56:36;;;;;;;20.23;16.40;;;31.10;94.60;;;;;;4166279;28;20121;-74
2022/04/25 00:58:45;;;;;;;21.50;16.15;;;31.10;94.50;;;;;;4186768;28;20041;-75
2022/04/25 01:00:49;;;;;;;19.45;14.88;;;31.10;94.40;;;;;;4182356;28;20049;-73
2022/04/25 01:02:55;;;;;;;20.13;14.68;;;31.10;94.10;;;;;;4183101;28;20045;-73
2022/04/25 01:05:04;;;;;;;20.25;14.45;;;31.10;94.40;;;;;;4184068;28;20041;-73
2022/04/25 01:07:10;;;;;;;19.73;15.43;;;31.10;94.50;;;;;;4160414;28;20046;-73
2022/04/25 01:09:16;;;;;;;18.48;14.07;;;31.20;94.40;;;;;;4172593;28;20050;-73
2022/04/25 01:11:23;;;;;;;21.27;14.45;;;31.20;94.40;;;;;;4179295;28;20037;-74
2022/04/25 01:13:30;;;;;;;19.55;15.30;;;31.20;94.30;;;;;;4142889;28;20053;-74
2022/04/25 01:15:40;;;;;;;21.05;15.23;;;31.20;94.40;;;;;;4179719;28;20045;-74
2022/04/25 01:17:50;;;;;;;21.23;15.27;;;31.30;94.60;;;;;;4182730;28;20045;-74
2022/04/25 01:20:02;;;;;;;18.60;15.43;;;31.30;94.70;;;;;;4186454;28;20248;-74
2022/04/25 01:22:10;;;;;;;18.85;14.88;;;31.40;95.00;;;;;;4189507;28;20033;-73
2022/04/25 01:28:54;;;;;;;19.27;14.25;;;31.50;94.90;;;;;;4185925;28;20055;-74
2022/04/25 01:31:00;;;;;;;18.02;13.93;;;31.60;94.60;;;;;;4177695;28;20469;-74
2022/04/25 01:33:08;;;;;;;20.58;14.68;;;31.60;94.50;;;;;;4191831;28;20141;-75
2022/04/25 01:35:16;;;;;;;20.40;14.40;;;31.60;94.30;;;;;;4189590;28;20045;-75
2022/04/25 01:37:22;;;;;;;19.50;13.73;;;31.60;94.20;;;;;;4191027;28;20055;-76
2022/04/25 01:39:29;;;;;;;21.23;13.52;;;31.70;94.30;;;;;;4185015;28;20498;-74
2022/04/25 01:41:34;;;;;;;20.00;13.73;;;31.80;94.20;;;;;;4181394;28;20088;-73
2022/04/25 01:43:40;;;;;;;20.65;14.45;;;31.80;94.20;;;;;;4186042;28;20128;-73
2022/04/25 01:45:47;;;;;;;19.63;14.18;;;31.90;94.10;;;;;;4151906;28;20054;-72
2022/04/25 01:47:51;;;;;;;17.52;13.77;;;31.90;93.90;;;;;;4184875;28;20590;-72
2022/04/25 01:49:58;;;;;;;18.05;14.32;;;31.90;93.60;;;;;;4190080;28;20047;-72
2022/04/25 01:52:31;;;;;;;16.08;13.07;;;32.00;93.50;;;;;;4185526;28;20109;-71
2022/04/25 01:54:35;;;;;;;23.35;14.10;;;32.00;93.90;;;;;;4188155;28;20611;-72
2022/04/25 01:56:41;;;;;;;17.08;13.85;;;32.10;93.90;;;;;;4183714;28;20045;-73
2022/04/25 01:58:48;;;;;;;15.60;13.77;;;32.10;93.70;;;;;;4182318;28;20049;-72
2022/04/25 02:00:53;;;;;;;19.10;14.23;;;32.20;93.40;;;;;;4188989;28;20048;-72
2022/04/25 02:03:00;;;;;;;16.70;13.35;;;32.20;93.40;;;;;;4186273;28;20037;-73
2022/04/25 02:05:07;;;;;;;17.17;13.38;;;32.30;93.50;;;;;;4180067;28;20037;-72
2022/04/25 02:07:12;;;;;;;20.25;14.50;;;32.30;93.40;;;;;;4190895;28;20036;-72
2022/04/25 02:09:17;;;;;;;17.15;12.98;;;32.40;93.10;;;;;;4186216;28;20041;-71
2022/04/25 02:11:24;;;;;;;17.00;14.00;;;32.40;92.90;;;;;;4175537;28;20109;-72
2022/04/25 02:13:28;;;;;;;16.17;13.25;;;32.40;92.90;;;;;;4191762;28;20124;-71
2022/04/25 02:15:35;;;;;;;17.50;13.10;;;32.50;92.90;;;;;;4205610;28;20052;-72
2022/04/25 02:17:47;;;;;;;17.88;13.02;;;32.50;92.80;;;;;;4206717;28;20059;-72
2022/04/25 02:19:52;;;;;;;22.63;13.60;;;32.60;92.60;;;;;;4198023;28;20476;-72
2022/04/25 02:21:58;;;;;;;15.35;12.55;;;32.70;92.40;;;;;;4191434;28;20080;-72
2022/04/25 02:24:04;;;;;;;19.17;14.60;;;32.70;92.30;;;;;;4205873;28;20044;-72
2022/04/25 02:26:09;;;;;;;18.08;13.13;;;32.70;92.10;;;;;;4195278;28;20044;-72
2022/04/25 02:28:15;;;;;;;18.60;13.18;;;32.70;92.20;;;;;;4205575;28;20131;-72
2022/04/25 02:30:24;;;;;;;15.82;12.40;;;32.80;92.30;;;;;;4146841;28;20057;-72
2022/04/25 02:32:28;;;;;;;16.77;13.15;;;32.80;92.20;;;;;;4205964;28;20053;-72
2022/04/25 02:34:35;;;;;;;17.80;12.85;;;33.00;92.10;;;;;;4203884;28;20498;-71
2022/04/25 02:36:41;;;;;;;17.73;13.57;;;33.00;92.10;;;;;;4204877;28;20094;-72
2022/04/25 02:38:46;;;;;;;21.70;14.00;;;33.10;92.00;;;;;;4196890;28;20052;-73
2022/04/25 02:43:10;;;;;;;17.60;13.43;;;33.10;91.90;;;;;;4186564;28;20053;-72
2022/04/25 02:45:15;;;;;;;23.77;14.60;;;33.20;91.90;;;;;;4200460;28;20053;-73
2022/04/25 02:47:21;;;;;;;16.52;13.10;;;33.20;91.80;;;;;;4204488;28;20119;-72
2022/04/25 02:49:28;;;;;;;17.88;13.68;;;33.30;91.70;;;;;;4205879;28;20048;-73
2022/04/25 02:51:32;;;;;;;17.08;12.32;;;33.30;91.20;;;;;;4205817;28;20100;-72
2022/04/25 02:53:39;;;;;;;16.60;12.18;;;33.40;91.20;;;;;;4205693;28;20040;-72
2022/04/25 02:55:45;;;;;;;20.83;12.57;;;33.40;91.00;;;;;;4203300;28;20246;-72
2022/04/25 02:57:50;;;;;;;17.40;13.05;;;33.40;91.00;;;;;;4204250;28;20074;-72
2022/04/25 02:59:56;;;;;;;17.35;13.15;;;33.40;90.70;;;;;;4205842;28;20078;-72
2022/04/25 03:02:02;;;;;;;16.92;12.10;;;33.40;90.90;;;;;;4204769;28;20082;-72
2022/04/25 03:04:07;;;;;;;14.60;11.32;;;33.50;91.00;;;;;;4197324;28;20052;-72
2022/04/25 03:06:13;;;;;;;14.50;11.00;;;33.60;91.10;;;;;;4203929;28;20055;-72
2022/04/25 03:08:21;;;;;;;14.98;11.13;;;33.60;90.80;;;;;;4203726;28;20048;-72
2022/04/25 03:10:26;;;;;;;16.02;11.15;;;33.80;90.40;;;;;;4201340;28;20083;-71
2022/04/25 03:12:34;;;;;;;13.25;11.25;;;33.90;90.00;;;;;;4199832;28;20060;-72
2022/04/25 03:14:38;;;;;;;14.82;10.25;;;33.90;90.10;;;;;;4201386;28;20045;-72
2022/04/25 03:16:43;;;;;;;18.67;11.25;;;34.00;89.80;;;;;;4188564;28;20045;-72
2022/04/25 03:18:50;;;;;;;18.50;11.20;;;34.00;89.60;;;;;;4199249;28;20040;-73
2022/04/25 03:20:56;;;;;;;17.10;10.52;;;34.10;89.60;;;;;;4202852;28;20048;-71
2022/04/25 03:23:01;;;;;;;14.05;10.10;;;34.10;89.60;;;;;;4205465;28;20037;-72
2022/04/25 03:25:07;;;;;;;13.27;10.52;;;34.10;88.90;;;;;;4204277;28;20568;-71
2022/04/25 03:27:14;;;;;;;13.80;10.88;;;34.20;88.40;;;;;;4204416;28;20056;-71
2022/04/25 03:29:18;;;;;;;13.77;10.88;;;34.30;88.30;;;;;;4203088;28;20048;-71
2022/04/25 03:31:27;;;;;;;14.45;10.52;;;34.30;87.60;;;;;;4204885;28;20048;-71
2022/04/25 03:33:37;;;;;;;13.82;10.43;;;34.40;87.80;;;;;;4202797;28;20389;-71
2022/04/25 03:35:41;;;;;;;14.45;10.23;;;34.40;87.20;;;;;;4202457;28;20041;-72
2022/04/25 03:37:48;;;;;;;14.02;9.75;;;34.50;86.60;;;;;;4203790;28;20525;-71
2022/04/25 03:39:54;;;;;;;12.20;9.52;;;34.60;86.50;;;;;;4202422;28;20048;-71
2022/04/25 03:42:00;;;;;;;13.55;9.30;;;34.60;86.10;;;;;;4203936;28;20048;-72
2022/04/25 03:44:06;;;;;;;13.18;10.30;;;34.70;85.30;;;;;;4204312;28;20072;-72
2022/04/25 03:46:13;;;;;;;12.43;9.27;;;34.60;85.00;;;;;;4204294;28;20079;-72
2022/04/25 03:48:18;;;;;;;15.00;9.00;;;34.60;85.50;;;;;;4201730;28;20086;-72
2022/04/25 03:50:24;;;;;;;12.27;10.10;;;34.60;85.00;;;;;;4204408;28;20542;-72
2022/04/25 03:52:31;;;;;;;13.85;10.90;;;34.70;84.50;;;;;;4203075;28;20566;-72
2022/04/25 03:57:10;;;;;;;17.08;10.32;;;34.80;84.50;;;;;;4203973;28;20033;-72
2022/04/25 03:59:16;;;;;;;16.13;10.18;;;34.80;83.50;;;;;;4192366;28;20491;-72
2022/04/25 04:01:21;;;;;;;14.63;9.68;;;34.90;84.20;;;;;;4203567;28;20521;-72
2022/04/25 04:03:28;;;;;;;15.50;9.38;;;35.10;83.50;;;;;;4197010;28;20648;-72
2022/04/25 04:05:35;;;;;;;10.05;8.18;;;34.90;83.00;;;;;;4197398;28;20045;-72
2022/04/25 04:07:40;;;;;;;11.20;8.30;;;34.80;82.50;;;;;;4201934;28;20067;-72
2022/04/25 04:09:47;;;;;;;11.57;8.88;;;34.80;82.70;;;;;;4195949;28;20446;-71
2022/04/25 04:11:54;;;;;;;11.52;8.77;;;34.80;82.60;;;;;;4188562;28;20049;-73
2022/04/25 04:13:58;;;;;;;12.13;8.73;;;35.00;82.50;;;;;;4195332;28;20113;-73
2022/04/25 04:16:05;;;;;;;10.60;7.90;;;35.10;82.00;;;;;;4190891;28;20136;-71
2022/04/25 04:18:12;;;;;;;12.80;8.15;;;35.30;81.80;;;;;;4199019;28;20101;-72
2022/04/25 04:20:17;;;;;;;10.65;8.13;;;35.40;81.00;;;;;;4202247;28;20043;-71
2022/04/25 04:22:25;;;;;;;12.77;8.52;;;35.40;81.30;;;;;;4201828;28;20068;-72
2022/04/25 04:24:32;;;;;;;12.23;8.13;;;35.30;82.30;;;;;;4203434;28;20041;-71
2022/04/25 04:26:37;;;;;;;12.13;9.05;;;35.20;82.00;;;;;;4202928;28;20037;-71
2022/04/25 04:28:43;;;;;;;12.02;8.27;;;35.10;82.60;;;;;;4196674;28;20041;-72
2022/04/25 04:30:51;;;;;;;11.27;9.25;;;34.90;83.20;;;;;;4178371;28;20144;-69
2022/04/25 04:32:57;;;;;;;11.93;8.75;;;35.00;83.30;;;;;;4202041;28;20048;-72
2022/04/25 04:35:05;;;;;;;16.50;8.55;;;35.00;83.60;;;;;;4203244;28;20104;-70
2022/04/25 04:37:11;;;;;;;11.57;9.27;;;34.80;83.60;;;;;;4203818;28;20075;-72
2022/04/25 04:39:15;;;;;;;12.18;9.00;;;34.80;84.20;;;;;;4196138;28;20040;-72
2022/04/25 04:41:22;;;;;;;12.68;9.90;;;34.70;85.10;;;;;;4198517;28;20041;-71
2022/04/25 04:43:29;;;;;;;12.82;8.88;;;34.70;86.70;;;;;;4196422;28;20645;-70
2022/04/25 04:45:34;;;;;;;11.63;9.00;;;34.60;86.10;;;;;;4202137;28;20499;-70
2022/04/25 04:47:40;;;;;;;13.98;9.05;;;34.50;85.80;;;;;;4204735;28;20052;-71
2022/04/25 04:49:46;;;;;;;12.98;8.95;;;34.50;85.70;;;;;;4203436;28;20040;-71
2022/04/25 04:51:50;;;;;;;13.25;8.50;;;34.50;85.80;;;;;;4194023;28;20049;-72
2022/04/25 04:53:59;;;;;;;15.75;9.30;;;34.40;85.40;;;;;;4199332;28;20164;-72
2022/04/25 04:56:06;;;;;;;17.20;9.20;;;34.40;85.30;;;;;;4203750;28;20055;-72
2022/04/25 04:58:15;;;;;;;12.07;8.82;;;34.40;84.50;;;;;;4196348;28;20040;-72
2022/04/25 05:00:23;;;;;;;13.15;8.43;;;34.40;84.00;;;;;;4202802;28;20044;-72
2022/04/25 05:02:30;;;;;;;13.48;9.05;;;34.30;84.00;;;;;;4191127;28;20119;-72
2022/04/25 05:04:34;;;;;;;10.50;8.70;;;34.30;84.60;;;;;;4194035;28;20131;-72
2022/04/25 05:06:41;;;;;;;12.10;8.30;;;34.30;84.00;;;;;;4186413;28;20041;-72
2022/04/25 05:08:47;;;;;;;13.02;8.38;;;34.20;83.50;;;;;;4201655;28;20094;-71
2022/04/25 05:10:54;;;;;;;16.42;10.57;;;34.20;85.70;;;;;;4185375;28;20067;-71
2022/04/25 05:13:00;;;;;;;13.50;10.73;;;34.00;86.40;;;;;;4190910;28;20175;-71
2022/04/25 05:15:06;;;;;;;16.98;11.70;;;33.90;87.80;;;;;;4187038;28;20076;-73
2022/04/25 05:17:13;;;;;;;17.70;12.32;;;33.90;89.40;;;;;;4195494;28;20083;-72
2022/04/25 05:19:20;;;;;;;15.77;12.05;;;33.80;90.50;;;;;;4193490;28;20056;-70
2022/04/25 05:21:26;;;;;;;17.40;12.43;;;33.70;91.10;;;;;;4190088;28;20068;-72
2022/04/25 05:23:31;;;;;;;21.55;12.68;;;33.50;91.40;;;;;;4199106;28;20074;-72
2022/04/25 05:25:38;;;;;;;19.63;11.88;;;33.40;91.40;;;;;;4201360;28;20048;-72
2022/04/25 05:27:46;;;;;;;25.80;12.20;;;33.40;91.20;;;;;;4197857;28;20044;-72
2022/04/25 05:29:51;;;;;;;15.43;10.98;;;33.20;91.20;;;;;;4188515;28;20049;-72
2022/04/25 05:31:57;;;;;;;20.73;11.77;;;33.10;91.50;;;;;;4185884;28;20049;-72
2022/04/25 05:34:16;;;;;;;23.63;12.48;;;33.00;91.20;;;;;;4194182;28;20104;-73
2022/04/25 05:36:20;;;;;;;19.92;10.63;;;32.60;91.90;;;;;;4203412;28;20040;-73
2022/04/25 05:38:27;;;;;;;14.73;11.05;;;32.50;92.00;;;;;;4203531;28;20044;-73
2022/04/25 05:40:34;;;;;;;17.10;10.77;;;32.40;92.30;;;;;;4151633;28;20077;-73
2022/04/25 05:42:40;;;;;;;15.27;10.30;;;32.40;91.60;;;;;;4195895;28;20055;-73
2022/04/25 05:44:46;;;;;;;14.63;10.80;;;32.40;91.90;;;;;;4196520;28;20100;-73
2022/04/25 05:46:52;;;;;;;13.48;9.80;;;32.30;92.10;;;;;;4203845;28;20049;-73
2022/04/25 05:53:34;;;;;;;12.75;10.63;;;32.20;92.90;;;;;;4198363;28;20458;-73
2022/04/25 05:55:39;;;;;;;15.68;10.27;;;32.20;93.50;;;;;;4192652;28;20124;-72
2022/04/25 05:57:46;;;;;;;13.48;9.85;;;32.20;93.50;;;;;;4202978;28;20040;-72
2022/04/25 05:59:52;;;;;;;13.23;9.98;;;32.20;93.40;;;;;;4187860;28;20049;-73
2022/04/25 06:01:56;;;;;;;25.77;12.70;;;32.20;93.20;;;;;;4195212;28;20083;-72
2022/04/25 06:04:03;;;;;;;28.27;13.52;;;32.10;94.50;;;;;;4204900;28;20049;-72
2022/04/25 06:06:10;;;;;;;22.35;12.38;;;32.00;94.90;;;;;;4194080;28;20052;-72
2022/04/25 06:08:14;;;;;;;20.80;11.50;;;31.90;94.60;;;;;;4203672;28;20048;-73
2022/04/25 06:10:22;;;;;;;15.55;10.73;;;31.80;93.40;;;;;;4204875;28;20044;-73
2022/04/25 06:12:26;;;;;;;16.77;11.18;;;31.80;93.80;;;;;;4198801;28;20261;-73
2022/04/25 06:14:31;;;;;;;13.27;10.95;;;31.70;93.30;;;;;;4201502;28;20563;-73
2022/04/25 06:16:36;;;;;;;16.23;11.10;;;31.60;94.10;;;;;;4201329;28;20380;-74
2022/04/25 06:18:42;;;;;;;14.50;11.05;;;31.60;94.10;;;;;;4198135;28;20067;-73
2022/04/25 06:20:48;;;;;;;15.15;11.18;;;31.60;94.30;;;;;;4203718;28;20041;-73
2022/04/25 06:22:56;;;;;;;17.33;12.05;;;31.70;95.00;;;;;;4206065;28;20060;-73
2022/04/25 06:25:04;;;;;;;14.93;10.98;;;31.70;95.50;;;;;;4206361;28;20059;-73
2022/04/25 06:27:09;;;;;;;16.92;11.77;;;31.70;95.30;;;;;;4205281;28;20037;-72
2022/04/25 06:29:16;;;;;;;15.02;10.73;;;31.70;95.20;;;;;;4205755;28;20075;-74
2022/04/25 06:31:22;;;;;;;14.02;11.80;;;31.60;95.70;;;;;;4196622;28;20079;-74
2022/04/25 06:33:27;;;;;;;12.00;10.32;;;31.60;97.10;;;;;;4206493;28;20132;-74
2022/04/25 06:35:36;;;;;;;12.45;9.82;;;31.60;95.20;;;;;;4199245;28;20094;-74
2022/04/25 06:37:43;;;;;;;15.05;10.80;;;31.70;94.30;;;;;;4204913;28;20049;-74
2022/04/25 06:39:48;;;;;;;12.50;9.80;;;31.80;94.20;;;;;;4205551;28;20037;-74
2022/04/25 06:41:55;;;;;;;16.02;10.52;;;31.80;93.40;;;;;;4205007;28;20564;-73
2022/04/25 06:44:03;;;;;;;12.35;10.80;;;31.80;94.50;;;;;;4203804;28;20045;-73
2022/04/25 06:46:08;;;;;;;9.68;8.60;;;32.00;95.30;;;;;;4206212;28;20041;-73
2022/04/25 06:48:14;;;;;;;10.45;8.45;;;32.00;94.00;;;;;;4203919;28;20055;-73
2022/04/25 06:50:25;;;;;;;15.02;8.80;;;31.90;93.60;;;;;;4205318;28;20052;-74
2022/04/25 06:52:30;;;;;;;12.35;8.13;;;32.00;93.10;;;;;;4207370;28;20044;-73
2022/04/25 06:54:37;;;;;;;10.73;8.18;;;32.00;92.90;;;;;;4205187;28;20045;-72
2022/04/25 06:56:47;;;;;;;12.52;8.15;;;31.80;93.20;;;;;;4206153;28;20040;-73
2022/04/25 06:58:52;;;;;;;10.48;8.50;;;31.80;92.80;;;;;;4201576;28;20044;-73
2022/04/25 07:00:59;;;;;;;13.50;8.13;;;31.80;93.20;;;;;;4198466;28;20070;-72
2022/04/25 07:03:07;;;;;;;9.30;6.88;;;31.70;93.00;;;;;;4205531;28;20052;-73
2022/04/25 07:05:12;;;;;;;11.25;7.40;;;31.80;92.80;;;;;;4196939;28;20056;-73
2022/04/25 07:07:19;;;;;;;10.77;6.97;;;31.70;92.60;;;;;;4204832;28;20044;-73
2022/04/25 07:09:25;;;;;;;8.23;6.35;;;31.70;92.70;;;;;;4201811;28;20037;-73
2022/04/25 07:11:30;;;;;;;10.18;6.40;;;31.70;92.50;;;;;;4189336;28;20041;-73
2022/04/25 07:13:41;;;;;;;9.95;6.35;;;31.70;92.90;;;;;;4189985;28;20051;-73
2022/04/25 07:15:48;;;;;;;9.18;6.80;;;31.70;92.60;;;;;;4204197;28;20071;-74
2022/04/25 07:17:55;;;;;;;11.95;7.20;;;31.60;92.70;;;;;;4189772;28;20043;-73
2022/04/25 07:20:02;;;;;;;7.13;6.32;;;31.60;92.90;;;;;;4193106;28;20079;-74
2022/04/25 07:29:17;;;;;;;10.57;7.50;;;31.70;92.90;;;;;;4170465;28;20579;-74
2022/04/25 07:31:22;;;;;;;9.18;7.05;;;31.80;92.70;;;;;;4190167;28;20049;-74
2022/04/25 07:33:29;;;;;;;12.70;7.72;;;31.80;92.80;;;;;;4197376;28;20131;-74
2022/04/25 07:35:39;;;;;;;10.77;7.45;;;31.80;92.70;;;;;;4192268;28;20090;-75
2022/04/25 07:37:44;;;;;;;9.35;7.50;;;31.90;92.90;;;;;;4204238;28;20040;-74
2022/04/25 07:39:51;;;;;;;7.82;6.90;;;31.90;93.00;;;;;;4205197;28;20032;-73
2022/04/25 07:41:58;;;;;;;9.95;7.50;;;31.90;93.20;;;;;;4195319;28;20052;-74
2022/04/25 07:44:04;;;;;;;8.80;7.20;;;31.90;93.30;;;;;;4205275;28;20083;-73
2022/04/25 07:46:10;;;;;;;10.73;7.68;;;31.90;93.60;;;;;;4197231;28;20507;-74
2022/04/25 07:48:16;;;;;;;11.48;7.63;;;31.90;93.70;;;;;;4197450;28;20045;-73
2022/04/25 07:50:23;;;;;;;10.52;7.10;;;31.90;93.40;;;;;;4203511;28;20048;-74
2022/04/25 07:52:29;;;;;;;10.98;7.43;;;32.00;93.30;;;;;;4199212;28;20075;-73
2022/04/25 07:54:36;;;;;;;10.50;7.35;;;32.20;93.20;;;;;;4161817;28;20073;-73
2022/04/25 07:56:42;;;;;;;11.73;7.18;;;32.30;92.90;;;;;;4198356;28;20040;-72
2022/04/25 07:58:49;;;;;;;10.65;7.80;;;32.50;92.60;;;;;;4188201;28;20067;-72
2022/04/25 08:00:56;;;;;;;11.07;6.85;;;32.80;92.00;;;;;;4167912;28;20802;-73
2022/04/25 08:03:02;;;;;;;9.90;6.88;;;33.00;91.60;;;;;;4191927;28;20613;-72
2022/04/25 08:05:10;;;;;;;10.85;7.30;;;33.10;91.30;;;;;;4199334;28;20439;-73
2022/04/25 08:07:14;;;;;;;8.23;7.00;;;33.20;91.20;;;;;;4201749;28;20091;-73
2022/04/25 08:09:19;;;;;;;8.05;6.80;;;33.40;91.30;;;;;;4199377;28;20051;-72
2022/04/25 08:11:24;;;;;;;8.20;6.82;;;33.40;90.60;;;;;;4189697;28;20048;-70
2022/04/25 08:18:06;;;;;;;11.10;6.97;;;33.70;90.10;;;;;;4202056;28;20072;-73
2022/04/25 08:20:14;;;;;;;8.02;6.50;;;33.80;90.40;;;;;;4204193;28;20093;-73
2022/04/25 08:22:19;;;;;;;9.65;7.20;;;33.80;90.10;;;;;;4195911;28;20136;-73
2022/04/25 08:24:26;;;;;;;10.20;6.90;;;33.90;90.00;;;;;;4202611;28;20043;-72
2022/04/25 08:26:34;;;;;;;11.13;7.20;;;33.90;90.10;;;;;;4202397;28;20033;-73
2022/04/25 08:28:40;;;;;;;11.45;7.47;;;34.00;89.50;;;;;;4203290;28;20036;-72
2022/04/25 08:31:09;;;;;;;14.68;8.25;;;34.00;89.30;;;;;;4197919;28;20511;-73
2022/04/25 08:33:22;;;;;;;11.85;7.85;;;34.10;90.00;;;;;;4199835;28;20045;-73
2022/04/25 08:35:27;;;;;;;10.65;7.25;;;34.10;89.70;;;;;;4193596;28;20048;-72
2022/04/25 08:37:35;;;;;;;12.43;7.85;;;34.10;88.20;;;;;;4200425;28;20040;-72
2022/04/25 08:39:42;;;;;;;9.02;7.10;;;34.20;89.10;;;;;;4186950;28;20060;-73
2022/04/25 08:41:53;;;;;;;9.35;7.15;;;34.20;88.70;;;;;;4195353;28;20110;-73
2022/04/25 08:44:00;;;;;;;11.10;6.55;;;34.30;88.80;;;;;;4196012;28;20036;-73
2022/04/25 08:46:10;;;;;;;8.02;6.47;;;34.30;88.10;;;;;;4189887;28;20044;-72
2022/04/25 08:48:15;;;;;;;9.32;6.68;;;34.30;88.60;;;;;;4204721;28;20045;-73
2022/04/25 08:50:20;;;;;;;8.05;6.10;;;34.40;87.80;;;;;;4203485;28;20044;-72
2022/04/25 08:52:27;;;;;;;9.85;6.50;;;34.40;86.80;;;;;;4185087;28;20139;-73
2022/04/25 08:54:32;;;;;;;7.38;6.28;;;34.40;86.70;;;;;;4199482;28;20044;-71
2022/04/25 08:56:40;;;;;;;7.20;6.10;;;34.40;86.90;;;;;;4203338;28;20039;-72
2022/04/25 08:58:47;;;;;;;8.13;6.03;;;34.40;87.20;;;;;;4195030;28;20094;-72
2022/04/25 09:00:52;;;;;;;8.27;6.22;;;34.40;87.60;;;;;;4204354;28;20071;-73
2022/04/25 09:02:59;;;;;;;9.82;6.45;;;34.40;87.60;;;;;;4203938;28;20047;-71
2022/04/25 09:05:07;;;;;;;6.97;6.28;;;34.50;88.10;;;;;;4195288;28;20127;-73
2022/04/25 09:07:13;;;;;;;8.98;6.28;;;34.50;88.10;;;;;;4203247;28;20056;-72
2022/04/25 09:09:21;;;;;;;10.98;6.70;;;34.40;88.40;;;;;;4203154;28;20148;-71
2022/04/25 09:13:45;;;;;;;9.48;6.38;;;34.50;88.20;;;;;;4203872;28;20041;-73
2022/04/25 09:15:54;;;;;;;8.88;6.28;;;34.40;87.60;;;;;;4193269;28;20067;-73
2022/04/25 09:18:00;;;;;;;9.07;6.00;;;34.50;86.80;;;;;;4201890;28;20123;-73
2022/04/25 09:20:07;;;;;;;9.73;6.63;;;34.50;86.50;;;;;;4203422;28;20048;-72
2022/04/25 09:22:15;;;;;;;8.60;7.50;;;34.50;86.30;;;;;;4203252;28;20055;-73
2022/04/25 09:24:27;;;;;;;13.43;8.80;;;34.50;86.30;;;;;;4186608;28;20061;-73
2022/04/25 09:26:31;;;;;;;14.38;9.57;;;34.50;86.60;;;;;;4196529;28;20072;-73
2022/04/25 09:28:49;;;;;;;11.57;8.32;;;34.40;86.40;;;;;;4192425;28;20072;-72
2022/04/25 09:30:57;;;;;;;9.95;7.13;;;34.50;86.60;;;;;;4195194;28;20045;-72
2022/04/25 09:33:02;;;;;;;9.13;6.22;;;34.50;85.70;;;;;;4188626;28;20037;-72
2022/04/25 09:35:41;;;;;;;12.00;6.65;;;34.50;85.00;;;;;;4183806;28;20049;-73
2022/04/25 09:37:50;;;;;;;8.32;6.30;;;34.50;84.90;;;;;;4162053;28;20045;-73
2022/04/25 09:40:02;;;;;;;10.57;6.68;;;34.50;85.60;;;;;;4207517;28;20288;-73
2022/04/25 09:42:09;;;;;;;6.90;6.20;;;34.40;85.10;;;;;;4207169;28;20051;-73
2022/04/25 09:44:17;;;;;;;7.72;6.30;;;34.50;85.60;;;;;;4206844;28;20060;-74
2022/04/25 09:46:22;;;;;;;8.60;7.07;;;34.40;85.40;;;;;;4207970;28;20462;-74
2022/04/25 09:48:28;;;;;;;11.02;7.60;;;34.40;86.10;;;;;;4193318;28;20056;-74
2022/04/25 09:50:34;;;;;;;12.30;8.05;;;34.40;86.90;;;;;;4207563;28;20040;-73
2022/04/25 09:52:58;;;;;;;9.65;7.80;;;34.40;87.70;;;;;;4197131;28;20078;-74
2022/04/25 09:55:14;;;;;;;13.55;7.10;;;34.30;87.80;;;;;;4206621;28;20048;-73
2022/04/25 09:57:30;;;;;;;9.30;7.00;;;34.30;88.40;;;;;;4206378;28;20116;-73
2022/04/25 09:59:50;;;;;;;12.40;6.85;;;34.30;88.70;;;;;;4192928;28;20116;-73
2022/04/25 10:02:07;;;;;;;9.50;6.82;;;34.30;88.80;;;;;;4206297;28;20059;-73
2022/04/25 10:04:33;;;;;;;10.05;7.25;;;34.20;89.00;;;;;;4200029;28;20045;-74
2022/04/25 10:06:38;;;;;;;10.90;7.13;;;34.20;88.40;;;;;;4179924;28;20065;-74
2022/04/25 10:08:42;;;;;;;8.80;6.38;;;34.20;88.00;;;;;;4206131;28;20063;-74
2022/04/25 10:10:57;;;;;;;9.73;6.53;;;34.20;87.40;;;;;;4201146;28;20344;-74
2022/04/25 10:13:02;;;;;;;8.32;6.32;;;34.20;86.60;;;;;;4199438;28;20442;-73
2022/04/25 10:15:08;;;;;;;7.32;6.07;;;34.10;86.20;;;;;;4202014;28;20040;-72
2022/04/25 10:17:15;;;;;;;9.52;6.85;;;34.20;85.40;;;;;;4205952;28;20168;-72
2022/04/25 10:19:21;;;;;;;8.05;6.35;;;34.10;85.40;;;;;;4205692;28;20040;-72
2022/04/25 10:21:30;;;;;;;8.98;6.53;;;34.10;85.80;;;;;;4198223;28;20063;-73
2022/04/25 10:23:38;;;;;;;8.65;7.07;;;34.00;86.40;;;;;;4172019;28;20046;-73
2022/04/25 10:25:48;;;;;;;9.43;6.53;;;34.00;86.60;;;;;;4197301;28;20098;-73
2022/04/25 10:27:55;;;;;;;11.68;7.97;;;34.00;86.20;;;;;;4205549;28;20040;-73
2022/04/25 10:30:09;;;;;;;8.50;7.68;;;34.00;86.50;;;;;;4205591;28;20072;-73
2022/04/25 10:32:18;;;;;;;8.63;6.70;;;33.90;86.50;;;;;;4203027;28;20152;-72
2022/04/25 10:34:43;;;;;;;9.63;6.85;;;33.90;86.40;;;;;;4205981;28;20037;-72
2022/04/25 10:36:49;;;;;;;11.18;7.15;;;33.90;86.50;;;;;;4175189;28;20443;-72
2022/04/25 10:39:14;;;;;;;7.68;6.05;;;33.80;86.30;;;;;;4195985;28;20049;-73
2022/04/25 10:44:14;;;;;;;8.77;6.03;;;33.80;86.60;;;;;;4188687;28;20095;-73
2022/04/25 10:46:20;;;;;;;7.68;6.10;;;33.80;87.10;;;;;;4202777;28;20052;-72
2022/04/25 10:48:27;;;;;;;10.48;6.88;;;33.70;87.30;;;;;;4198440;28;20718;-72
2022/04/25 10:50:34;;;;;;;9.82;6.50;;;33.60;87.70;;;;;;4201363;28;20037;-73
2022/04/25 10:55:14;;;;;;;9.35;7.28;;;33.60;88.10;;;;;;4203369;28;20054;-73
2022/04/25 10:57:22;;;;;;;9.10;6.80;;;33.50;88.30;;;;;;4187553;28;20093;-72
2022/04/25 10:59:29;;;;;;;8.40;7.50;;;33.50;88.80;;;;;;4191100;28;20060;-73
2022/04/25 11:01:34;;;;;;;9.75;7.30;;;33.40;88.80;;;;;;4186864;28;20052;-72
2022/04/25 11:04:01;;;;;;;11.40;7.70;;;33.40;89.30;;;;;;4200718;28;20053;-71
2022/04/25 11:06:09;;;;;;;12.07;9.07;;;33.30;89.60;;;;;;4180992;28;20135;-73
2022/04/25 11:08:33;;;;;;;16.92;10.13;;;33.30;90.30;;;;;;4184282;28;20698;-73
2022/04/25 11:11:08;;;;;;;13.63;9.68;;;33.20;90.70;;;;;;4166304;28;20061;-72
2022/04/25 11:13:19;;;;;;;22.42;13.15;;;33.10;91.10;;;;;;4195368;28;20044;-73
2022/04/25 11:15:45;;;;;;;51.10;26.92;;;33.00;91.60;;;;;;4201434;28;20203;-73
2022/04/25 11:18:16;;;;;;;86.28;39.58;;;33.00;92.00;;;;;;4201523;28;20060;-72
2022/04/25 11:20:53;;;;;;;123.38;52.70;;;32.90;92.00;;;;;;4194799;28;20100;-73
2022/04/25 11:22:59;;;;;;;129.35;54.05;;;32.80;92.00;;;;;;4196720;28;20049;-73
2022/04/25 11:25:42;;;;;;;101.70;43.42;;;32.70;91.80;;;;;;4202660;28;20044;-73
2022/04/25 11:28:10;;;;;;;88.47;39.60;;;32.70;92.10;;;;;;4197162;28;20451;-73